Terminal Aerodrome Forecast
Issued by NWS Sterling, VA

Home | Current Version | Previous Version | Text Only | Print | Product List | Glossary On
Versions: 1 2 3 4 5 6 7 8 9 10 11 12 13 14 15 16 17 18 19 20 21
000
FTUS41 KLWX 290831 AAA
TAFBWI
TAF AMD
KBWI 290831Z 2909/3012 00000KT P6SM FEW250
     FM292100 06004KT P6SM BKN050
     FM292300 VRB03KT P6SM SCT050
     FM301000 03005KT P6SM SCT250=

USA.gov is the U.S. government's official web portal to all federal, state and local government web resources and services.